Time;durP1;ratioP1;P1;durP2;ratioP2;P2;SDS_P1;SDS_P2;PMS_P1;PMS_P2;Temp;Humidity;BMP_temperature;BMP_pressure;BME280_temperature;BME280_humidity;BME280_pressure;Samples;Min_cycle;Max_cycle;Signal;HPM_P1;HPM_P2
2021/07/21 00:02:45;;;;;;;0.00;0.00;;;;;;;16.83;85.83;102277.94;10411338;28;20404;-58
2021/07/21 00:07:46;;;;;;;0.10;0.10;;;;;;;16.81;86.13;102277.25;10411346;28;20050;-60
2021/07/21 00:23:39;;;;;;;0.00;0.00;;;;;;;16.74;87.13;102262.75;10405382;28;20048;-57
2021/07/21 00:28:41;;;;;;;0.00;0.00;;;;;;;16.72;86.96;102265.59;10393382;28;20030;-55
2021/07/21 00:33:42;;;;;;;0.10;0.10;;;;;;;16.71;86.53;102261.25;10409494;28;20029;-60
2021/07/21 00:38:43;;;;;;;0.08;0.08;;;;;;;16.72;86.78;102260.22;10410462;28;20033;-58
2021/07/21 00:43:43;;;;;;;0.10;0.10;;;;;;;16.72;86.78;102248.63;10408787;28;20669;-57
2021/07/21 00:48:43;;;;;;;0.00;0.00;;;;;;;16.71;86.58;102249.63;10407370;28;20489;-58
2021/07/21 00:53:45;;;;;;;0.00;0.00;;;;;;;16.68;86.72;102248.13;10408963;28;20032;-58
2021/07/21 00:58:45;;;;;;;0.10;0.10;;;;;;;16.67;87.04;102245.59;10409144;28;20021;-59
2021/07/21 01:03:46;;;;;;;0.00;0.00;;;;;;;16.64;86.71;102251.28;10408697;28;20037;-57
2021/07/21 01:08:49;;;;;;;0.10;0.10;;;;;;;16.64;87.04;102257.53;10409928;28;20041;-59
2021/07/21 01:13:56;;;;;;;0.10;0.10;;;;;;;16.64;87.31;102265.59;10408553;28;20116;-58
2021/07/21 01:19:09;;;;;;;0.10;0.10;;;;;;;16.63;87.05;102261.22;10406806;28;20028;-59
2021/07/21 01:24:34;;;;;;;0.10;0.10;;;;;;;16.63;87.73;102260.38;10408087;28;20488;-59
2021/07/21 01:29:36;;;;;;;0.00;0.00;;;;;;;16.62;87.31;102264.09;10408215;28;20052;-60
2021/07/21 01:34:37;;;;;;;0.10;0.10;;;;;;;16.57;87.43;102263.72;10408339;28;20033;-58
2021/07/21 01:39:42;;;;;;;0.10;0.10;;;;;;;16.51;87.78;102262.53;10408082;28;20044;-59
2021/07/21 01:44:45;;;;;;;0.10;0.10;;;;;;;16.45;87.75;102264.03;10408428;28;20081;-59
2021/07/21 01:49:46;;;;;;;0.10;0.10;;;;;;;16.38;88.04;102260.31;10410841;28;20935;-57
2021/07/21 01:54:47;;;;;;;0.10;0.10;;;;;;;16.35;88.08;102252.56;10407623;28;20123;-57
2021/07/21 01:59:50;;;;;;;0.10;0.10;;;;;;;16.34;88.00;102261.63;10415008;28;20017;-58
2021/07/21 02:04:52;;;;;;;0.00;0.00;;;;;;;16.34;88.38;102260.78;10415492;28;20027;-58
2021/07/21 02:09:53;;;;;;;0.10;0.10;;;;;;;16.36;87.92;102264.16;10415494;28;20568;-56
2021/07/21 02:14:53;;;;;;;0.10;0.10;;;;;;;16.37;87.92;102255.09;10415168;28;20105;-58
2021/07/21 02:19:54;;;;;;;0.10;0.10;;;;;;;16.37;87.79;102255.09;10413932;28;20477;-57
2021/07/21 02:24:55;;;;;;;0.05;0.05;;;;;;;16.38;87.94;102251.41;10414527;28;20556;-59
2021/07/21 02:29:56;;;;;;;0.10;0.10;;;;;;;16.38;87.65;102251.41;10396256;28;20033;-57
2021/07/21 02:34:59;;;;;;;0.10;0.10;;;;;;;16.37;87.73;102250.53;10415050;28;20052;-59
2021/07/21 02:40:00;;;;;;;0.10;0.10;;;;;;;16.37;87.61;102258.59;10426801;22;20050;-60
2021/07/21 02:45:01;;;;;;;0.10;0.10;;;;;;;16.39;87.66;102253.09;10449214;28;20024;-62
2021/07/21 02:50:02;;;;;;;0.00;0.00;;;;;;;16.38;87.77;102254.94;10464567;28;20622;-61
2021/07/21 02:55:15;;;;;;;0.10;0.10;;;;;;;16.37;88.45;102247.84;10477128;28;20040;-61
2021/07/21 03:00:18;;;;;;;0.00;0.00;;;;;;;16.37;88.91;102252.38;10473478;28;20036;-61
2021/07/21 03:05:23;;;;;;;0.10;0.10;;;;;;;16.34;89.12;102247.34;10474640;28;20112;-62
2021/07/21 03:10:24;;;;;;;0.10;0.10;;;;;;;16.33;89.58;102248.34;10468485;28;20040;-61
2021/07/21 03:15:28;;;;;;;0.10;0.10;;;;;;;16.33;89.39;102242.97;10468676;28;20029;-62
2021/07/21 03:20:30;;;;;;;0.10;0.10;;;;;;;16.30;89.70;102242.28;10468406;28;20029;-62
2021/07/21 03:25:32;;;;;;;0.00;0.00;;;;;;;16.29;89.51;102242.47;10465158;28;20047;-62
2021/07/21 03:30:34;;;;;;;0.10;0.10;;;;;;;16.30;89.59;102252.22;10474276;28;20395;-62
2021/07/21 03:35:35;;;;;;;0.10;0.10;;;;;;;16.28;89.41;102251.50;10473448;28;20129;-62
2021/07/21 03:40:36;;;;;;;0.10;0.10;;;;;;;16.26;89.74;102253.50;10474798;28;20086;-61
2021/07/21 03:45:38;;;;;;;0.10;0.10;;;;;;;16.26;89.58;102254.38;10469683;28;20051;-62
2021/07/21 03:50:39;;;;;;;0.10;0.10;;;;;;;16.26;89.50;102249.00;10480970;28;20472;-62
2021/07/21 03:55:40;;;;;;;0.10;0.10;;;;;;;16.26;89.33;102258.91;10476238;28;20036;-62
2021/07/21 04:00:41;;;;;;;0.10;0.10;;;;;;;16.27;89.21;102253.38;10455447;28;20159;-62
2021/07/21 04:05:42;;;;;;;0.08;0.08;;;;;;;16.28;88.78;102263.09;10456922;28;20032;-62
2021/07/21 04:10:42;;;;;;;0.10;0.10;;;;;;;16.28;88.61;102259.59;10468153;28;20032;-61
2021/07/21 04:15:44;;;;;;;0.10;0.10;;;;;;;16.29;88.70;102256.75;10468866;28;20036;-62
2021/07/21 04:20:45;;;;;;;0.00;0.00;;;;;;;16.28;88.63;102260.41;10470109;28;20033;-62
2021/07/21 04:25:50;;;;;;;0.10;0.10;;;;;;;16.27;88.92;102266.81;10465376;28;20493;-62
2021/07/21 04:30:55;;;;;;;0.10;0.10;;;;;;;16.29;88.78;102269.34;10455638;28;20390;-62
2021/07/21 04:35:55;;;;;;;0.10;0.10;;;;;;;16.30;88.97;102271.03;10465316;28;20021;-62
2021/07/21 04:40:56;;;;;;;0.10;0.10;;;;;;;16.32;88.89;102279.78;10469685;28;20028;-61
2021/07/21 04:45:57;;;;;;;0.10;0.10;;;;;;;16.33;88.65;102275.25;10464892;28;20039;-62
2021/07/21 04:50:59;;;;;;;0.00;0.00;;;;;;;16.33;88.80;102281.47;10464234;28;20040;-62
2021/07/21 04:55:59;;;;;;;0.00;0.00;;;;;;;16.38;88.89;102287.19;10460258;28;20823;-62
2021/07/21 05:01:00;;;;;;;0.10;0.10;;;;;;;16.42;88.85;102282.34;10471054;28;20075;-62
2021/07/21 05:06:02;;;;;;;0.10;0.10;;;;;;;16.47;88.70;102294.28;10466585;28;20027;-61
2021/07/21 05:11:02;;;;;;;0.00;0.00;;;;;;;16.49;88.23;102296.81;10462100;28;20374;-62
2021/07/21 05:16:02;;;;;;;0.10;0.10;;;;;;;16.53;88.48;102301.72;10462449;28;20033;-62
2021/07/21 05:21:04;;;;;;;0.05;0.05;;;;;;;16.58;88.10;102295.84;10460898;28;20048;-62
2021/07/21 05:26:04;;;;;;;0.10;0.10;;;;;;;16.67;88.01;102310.19;10466624;28;20081;-62
2021/07/21 05:31:05;;;;;;;0.10;0.10;;;;;;;16.71;87.81;102308.81;10470524;28;20090;-62
2021/07/21 05:36:06;;;;;;;0.10;0.10;;;;;;;16.77;87.88;102316.28;10471319;28;20029;-62
2021/07/21 05:41:09;;;;;;;0.00;0.00;;;;;;;16.83;87.77;102321.00;10461997;28;20025;-62
2021/07/21 05:46:09;;;;;;;0.10;0.10;;;;;;;16.91;87.69;102317.50;10457530;28;20056;-61
2021/07/21 05:51:09;;;;;;;0.10;0.10;;;;;;;17.01;87.71;102325.41;10473382;28;20033;-62
2021/07/21 05:56:12;;;;;;;0.10;0.10;;;;;;;17.06;87.16;102321.22;10468093;28;20033;-62
2021/07/21 06:01:13;;;;;;;0.10;0.10;;;;;;;17.10;86.78;102327.94;10468646;28;20025;-62
2021/07/21 06:06:13;;;;;;;0.10;0.10;;;;;;;17.15;86.67;102330.16;10464550;28;20182;-62
2021/07/21 06:11:14;;;;;;;0.10;0.10;;;;;;;17.23;86.50;102332.03;10459298;28;20082;-62
2021/07/21 06:16:15;;;;;;;0.10;0.10;;;;;;;17.29;86.33;102339.44;10436960;28;20510;-62
2021/07/21 06:21:15;;;;;;;0.10;0.10;;;;;;;17.34;86.00;102329.84;10462428;28;20495;-63
2021/07/21 06:26:16;;;;;;;0.10;0.10;;;;;;;17.42;85.35;102345.16;10463160;28;20032;-62
2021/07/21 06:31:17;;;;;;;0.10;0.10;;;;;;;17.46;85.57;102345.69;10467728;28;20033;-62
2021/07/21 06:36:17;;;;;;;0.00;0.00;;;;;;;17.51;85.78;102348.69;10463399;28;20025;-62
2021/07/21 06:41:18;;;;;;;0.00;0.00;;;;;;;17.59;85.77;102364.88;10459865;28;20398;-62
2021/07/21 06:46:19;;;;;;;0.10;0.10;;;;;;;17.63;85.50;102364.38;10459838;28;20033;-62
2021/07/21 06:51:20;;;;;;;0.10;0.10;;;;;;;17.67;85.50;102364.03;10481302;28;20451;-62
2021/07/21 06:56:20;;;;;;;0.10;0.10;;;;;;;17.69;85.76;102364.72;10466166;28;20056;-62
2021/07/21 07:01:21;;;;;;;0.10;0.10;;;;;;;17.63;86.19;102368.94;10482300;28;20032;-63
2021/07/21 07:06:21;;;;;;;0.00;0.00;;;;;;;17.50;86.64;102376.66;10498509;28;20041;-63
2021/07/21 07:11:22;;;;;;;0.00;0.00;;;;;;;17.37;87.38;102385.25;10493736;28;20032;-62
2021/07/21 07:16:22;;;;;;;0.00;0.00;;;;;;;17.29;87.12;102386.06;10457981;28;20602;-62
2021/07/21 07:21:24;;;;;;;0.10;0.10;;;;;;;17.33;87.50;102397.34;10456371;28;20090;-63
2021/07/21 07:26:24;;;;;;;0.10;0.10;;;;;;;17.36;86.00;102397.00;10456791;28;20029;-62
2021/07/21 07:31:25;;;;;;;0.10;0.10;;;;;;;17.29;83.82;102401.38;10456123;28;20037;-62
2021/07/21 07:36:25;;;;;;;0.10;0.10;;;;;;;17.26;84.90;102393.63;10456406;28;20033;-63
2021/07/21 07:41:26;;;;;;;0.00;0.00;;;;;;;17.23;85.23;102393.97;10455565;28;20121;-63
2021/07/21 07:46:27;;;;;;;0.10;0.10;;;;;;;17.16;84.65;102389.25;10454144;28;20041;-63
2021/07/21 07:51:31;;;;;;;0.10;0.10;;;;;;;17.01;84.80;102398.94;10454997;28;20025;-63
2021/07/21 07:56:32;;;;;;;0.10;0.10;;;;;;;16.97;85.65;102402.97;10454991;28;20112;-61
2021/07/21 08:01:33;;;;;;;0.00;0.00;;;;;;;17.05;86.72;102416.47;10436819;28;20035;-63
2021/07/21 08:06:34;;;;;;;0.10;0.10;;;;;;;17.17;86.63;102412.44;10454803;28;20318;-63
2021/07/21 08:11:34;;;;;;;0.10;0.10;;;;;;;17.33;87.13;102417.03;10454487;28;20029;-62
2021/07/21 08:16:35;;;;;;;0.10;0.10;;;;;;;17.53;86.69;102414.88;10454911;28;20086;-63
2021/07/21 08:21:35;;;;;;;0.00;0.00;;;;;;;17.79;87.42;102416.63;10454078;28;20029;-63
2021/07/21 08:26:36;;;;;;;0.10;0.10;;;;;;;18.14;85.23;102419.97;10453839;28;20040;-63
2021/07/21 08:31:36;;;;;;;0.10;0.10;;;;;;;18.40;83.11;102412.50;10454187;28;20041;-63
2021/07/21 08:36:37;;;;;;;0.10;0.10;;;;;;;18.47;82.14;102404.56;10453513;28;20039;-63
2021/07/21 08:41:38;;;;;;;0.10;0.10;;;;;;;18.48;82.37;102417.88;10419650;22;20153;-59
2021/07/21 08:46:40;;;;;;;0.10;0.10;;;;;;;18.59;82.91;102423.91;10384140;28;20038;-59
2021/07/21 08:51:42;;;;;;;0.00;0.00;;;;;;;18.50;81.63;102415.88;10368604;28;20503;-58
2021/07/21 08:56:44;;;;;;;0.00;0.00;;;;;;;18.29;81.85;102427.19;10403069;28;20112;-58
2021/07/21 09:01:46;;;;;;;0.00;0.00;;;;;;;18.07;82.41;102425.22;10429495;28;20511;-61
2021/07/21 09:06:46;;;;;;;0.10;0.10;;;;;;;18.05;82.35;102436.16;10408176;28;20033;-58
2021/07/21 09:11:46;;;;;;;0.03;0.03;;;;;;;18.13;84.46;102446.09;10408717;28;20088;-58
2021/07/21 09:17:15;;;;;;;0.10;0.10;;;;;;;18.20;83.16;102440.84;10416049;28;20033;-60
2021/07/21 09:22:23;;;;;;;0.00;0.00;;;;;;;18.34;83.01;102440.16;10389250;28;20034;-59
2021/07/21 09:27:27;;;;;;;0.00;0.00;;;;;;;18.63;83.48;102439.59;10367950;28;20048;-59
2021/07/21 09:32:27;;;;;;;0.08;0.08;;;;;;;18.90;82.62;102441.03;10396379;28;20033;-58
2021/07/21 09:37:27;;;;;;;0.00;0.00;;;;;;;19.16;81.30;102439.91;10408650;28;20507;-58
2021/07/21 09:42:29;;;;;;;0.00;0.00;;;;;;;19.50;79.81;102442.25;10406740;28;20496;-60
2021/07/21 09:47:29;;;;;;;0.08;0.08;;;;;;;19.86;77.91;102444.38;10410099;28;20881;-59
2021/07/21 09:52:29;;;;;;;0.10;0.10;;;;;;;20.09;77.56;102447.06;10410523;28;20025;-59
2021/07/21 09:57:29;;;;;;;0.10;0.10;;;;;;;20.30;77.03;102441.81;10414625;28;20030;-57
2021/07/21 10:02:30;;;;;;;0.10;0.10;;;;;;;20.42;76.13;102439.50;10412806;28;20040;-59
2021/07/21 10:12:35;;;;;;;0.00;0.00;;;;;;;20.54;75.59;102437.19;10416945;28;20045;-59
2021/07/21 10:17:36;;;;;;;0.10;0.10;;;;;;;20.57;74.84;102439.53;10412249;28;20029;-59
2021/07/21 10:22:36;;;;;;;0.00;0.00;;;;;;;20.61;74.33;102440.81;10414874;28;20438;-59
2021/07/21 10:27:36;;;;;;;0.10;0.10;;;;;;;20.64;73.94;102439.59;10419852;28;20044;-59
2021/07/21 10:32:37;;;;;;;0.10;0.10;;;;;;;20.67;73.69;102434.66;10397275;28;20030;-59
2021/07/21 10:37:37;;;;;;;0.10;0.10;;;;;;;20.69;73.16;102438.03;10398317;28;20083;-59
2021/07/21 10:42:37;;;;;;;0.10;0.10;;;;;;;20.61;72.35;102435.41;10411280;28;20276;-61
2021/07/21 10:47:43;;;;;;;0.00;0.00;;;;;;;20.67;72.68;102434.66;10404877;28;20083;-60
2021/07/21 10:52:57;;;;;;;0.10;0.10;;;;;;;20.67;72.39;102421.13;10396476;28;20492;-61
2021/07/21 11:03:31;;;;;;;0.08;0.08;;;;;;;21.04;73.97;102427.44;10405729;28;20119;-61
2021/07/21 11:08:31;;;;;;;0.10;0.10;;;;;;;21.53;71.50;102415.09;10449358;28;20044;-60
2021/07/21 11:13:33;;;;;;;0.00;0.00;;;;;;;21.96;69.93;102421.28;10451934;28;20044;-59
2021/07/21 11:18:40;;;;;;;0.03;0.03;;;;;;;22.21;68.19;102415.47;10414987;28;20037;-59
2021/07/21 11:23:53;;;;;;;0.10;0.10;;;;;;;22.31;68.02;102426.81;10411609;28;20037;-59
2021/07/21 11:28:54;;;;;;;0.00;0.00;;;;;;;22.44;66.67;102418.75;10412918;28;20068;-58
2021/07/21 11:33:55;;;;;;;0.10;0.10;;;;;;;22.91;66.26;102411.69;10412236;28;20476;-58
2021/07/21 11:38:56;;;;;;;0.10;0.10;;;;;;;22.93;63.67;102403.34;10412804;28;20030;-59
2021/07/21 11:44:02;;;;;;;0.10;0.10;;;;;;;22.80;63.78;102410.38;10412808;28;20041;-59
2021/07/21 11:49:03;;;;;;;0.10;0.10;;;;;;;22.29;64.46;102415.34;10412975;28;20144;-59
2021/07/21 11:54:04;;;;;;;0.00;0.00;;;;;;;21.79;65.72;102409.91;10412697;28;20112;-58
2021/07/21 11:59:05;;;;;;;0.00;0.00;;;;;;;21.34;68.00;102411.09;10413292;28;20112;-58
2021/07/21 12:04:05;;;;;;;0.10;0.10;;;;;;;20.98;69.79;102420.91;10412465;28;20544;-58
2021/07/21 12:09:05;;;;;;;0.00;0.00;;;;;;;20.96;69.77;102422.97;10412617;28;20096;-57
2021/07/21 12:14:06;;;;;;;0.10;0.10;;;;;;;21.06;69.48;102422.69;10410759;28;20041;-58
2021/07/21 12:19:06;;;;;;;0.10;0.10;;;;;;;21.16;69.54;102411.53;10412410;28;20061;-57
2021/07/21 12:24:09;;;;;;;0.10;0.10;;;;;;;21.39;69.99;102414.94;10404292;28;20032;-57
2021/07/21 12:29:10;;;;;;;0.10;0.10;;;;;;;21.67;69.94;102406.03;10410411;28;20033;-58
2021/07/21 12:34:11;;;;;;;0.08;0.08;;;;;;;22.26;68.98;102403.00;10411303;28;20264;-58
2021/07/21 12:39:13;;;;;;;0.20;0.10;;;;;;;22.55;67.14;102401.91;10410609;28;20036;-59
2021/07/21 12:44:16;;;;;;;0.10;0.10;;;;;;;22.78;64.90;102400.78;10392780;28;20037;-57
2021/07/21 12:49:16;;;;;;;0.10;0.10;;;;;;;22.72;63.79;102409.72;10410474;28;20104;-60
2021/07/21 12:54:19;;;;;;;0.10;0.10;;;;;;;22.77;63.65;102399.91;10408928;28;20059;-59
2021/07/21 12:59:19;;;;;;;0.10;0.10;;;;;;;23.35;63.99;102396.78;10410306;28;20396;-58
2021/07/21 13:04:32;;;;;;;0.10;0.10;;;;;;;23.85;61.96;102391.00;10409789;28;20036;-60
2021/07/21 13:09:34;;;;;;;0.10;0.10;;;;;;;23.45;58.21;102405.41;10410095;28;20040;-60
2021/07/21 13:14:35;;;;;;;0.10;0.10;;;;;;;22.74;61.10;102408.47;10418197;28;20048;-59
2021/07/21 13:19:35;;;;;;;0.10;0.10;;;;;;;22.29;60.60;102401.75;10373401;28;20362;-58
2021/07/21 13:24:39;;;;;;;0.10;0.10;;;;;;;22.25;61.31;102400.47;10369040;28;20040;-60
2021/07/21 13:29:41;;;;;;;0.10;0.10;;;;;;;22.52;62.34;102396.88;10367141;28;20064;-59
2021/07/21 13:34:44;;;;;;;0.00;0.00;;;;;;;22.64;59.82;102402.59;10378040;28;20045;-60
2021/07/21 13:39:46;;;;;;;0.10;0.10;;;;;;;22.77;61.36;102391.78;10407933;28;20033;-59
2021/07/21 13:44:59;;;;;;;0.00;0.00;;;;;;;22.56;58.50;102398.16;10432140;28;20492;-60
2021/07/21 13:50:03;;;;;;;0.10;0.10;;;;;;;22.40;59.11;102400.34;10450731;28;20480;-60
2021/07/21 13:55:04;;;;;;;0.10;0.10;;;;;;;22.15;61.03;102401.63;10462681;28;20025;-60
2021/07/21 14:00:05;;;;;;;0.10;0.10;;;;;;;21.97;61.08;102404.00;10461738;28;20122;-61
2021/07/21 14:05:06;;;;;;;0.00;0.00;;;;;;;21.56;60.87;102396.56;10436354;28;20033;-58
2021/07/21 14:10:07;;;;;;;0.10;0.10;;;;;;;21.64;60.52;102396.44;10433961;28;20271;-60
2021/07/21 14:15:07;;;;;;;0.00;0.00;;;;;;;22.00;61.43;102395.47;10425679;28;20065;-59
2021/07/21 14:20:08;;;;;;;0.00;0.00;;;;;;;22.30;62.45;102392.56;10428593;28;20507;-59
2021/07/21 14:25:09;;;;;;;0.00;0.00;;;;;;;22.26;60.65;102394.84;10456785;28;20055;-59
2021/07/21 14:30:10;;;;;;;0.10;0.10;;;;;;;22.25;60.11;102400.47;10461988;28;20029;-60
2021/07/21 14:35:11;;;;;;;0.10;0.10;;;;;;;22.19;60.53;102395.84;10462051;28;20043;-58
2021/07/21 14:40:12;;;;;;;0.10;0.10;;;;;;;22.54;60.47;102400.25;10440665;28;20088;-60
2021/07/21 14:45:12;;;;;;;0.10;0.10;;;;;;;22.32;60.06;102396.75;10415611;28;20483;-60
2021/07/21 14:50:13;;;;;;;0.10;0.10;;;;;;;22.18;61.76;102397.72;10461969;28;20036;-60
2021/07/21 14:55:13;;;;;;;0.10;0.10;;;;;;;22.22;62.20;102398.97;10444026;28;20357;-59
2021/07/21 15:00:14;;;;;;;0.10;0.10;;;;;;;22.05;59.79;102390.28;10446962;22;20503;-61
2021/07/21 15:05:15;;;;;;;0.03;0.03;;;;;;;21.62;60.82;102384.94;10412999;28;20045;-61
2021/07/21 15:10:15;;;;;;;0.10;0.10;;;;;;;21.56;60.66;102387.59;10412131;28;20030;-61
2021/07/21 15:15:15;;;;;;;0.00;0.00;;;;;;;21.37;61.50;102386.34;10425399;28;20033;-62
2021/07/21 15:20:16;;;;;;;0.10;0.10;;;;;;;21.41;63.63;102377.66;10453769;28;20612;-62
2021/07/21 15:25:17;;;;;;;0.10;0.10;;;;;;;21.50;62.13;102396.47;10452981;28;20509;-62
2021/07/21 15:30:17;;;;;;;0.10;0.10;;;;;;;21.61;61.63;102382.41;10453819;28;20057;-62
2021/07/21 15:35:19;;;;;;;0.10;0.10;;;;;;;21.58;60.93;102389.03;10449910;28;20503;-62
2021/07/21 15:40:20;;;;;;;0.10;0.10;;;;;;;21.56;61.04;102383.00;10413777;28;20060;-62
2021/07/21 15:45:20;;;;;;;0.10;0.10;;;;;;;21.60;61.24;102383.44;10414182;28;20049;-62
2021/07/21 15:50:21;;;;;;;0.00;0.00;;;;;;;21.38;62.01;102390.72;10416693;28;20519;-62
2021/07/21 15:55:21;;;;;;;0.10;0.10;;;;;;;21.13;63.20;102382.94;10412513;28;20532;-62
2021/07/21 16:00:22;;;;;;;0.10;0.10;;;;;;;20.88;64.05;102384.31;10413681;28;20368;-62
2021/07/21 16:05:23;;;;;;;0.10;0.10;;;;;;;20.75;63.56;102393.94;10413628;28;20042;-61
2021/07/21 16:10:24;;;;;;;0.10;0.10;;;;;;;20.80;63.23;102387.97;10413147;28;20416;-62
2021/07/21 16:15:24;;;;;;;0.10;0.10;;;;;;;20.85;64.09;102381.97;10411257;28;20025;-61
2021/07/21 16:20:25;;;;;;;0.10;0.10;;;;;;;20.85;63.68;102387.41;10412116;28;20161;-62
2021/07/21 16:25:31;;;;;;;0.10;0.10;;;;;;;20.85;64.64;102392.81;10412566;28;20037;-61
2021/07/21 16:30:32;;;;;;;0.10;0.10;;;;;;;20.54;63.80;102383.06;10411917;28;20117;-62
2021/07/21 16:35:32;;;;;;;0.10;0.10;;;;;;;20.44;64.17;102395.97;10412095;28;20117;-61
2021/07/21 16:40:32;;;;;;;0.10;0.10;;;;;;;20.26;65.15;102389.06;10411833;28;20061;-62
2021/07/21 16:45:33;;;;;;;0.10;0.10;;;;;;;20.17;64.19;102392.06;10411438;28;20041;-61
2021/07/21 16:50:34;;;;;;;0.00;0.00;;;;;;;20.16;65.82;102391.22;10410789;28;20052;-62
2021/07/21 16:55:34;;;;;;;0.00;0.00;;;;;;;20.16;66.11;102390.34;10411407;28;20057;-62
2021/07/21 17:00:37;;;;;;;0.10;0.10;;;;;;;19.81;65.38;102384.59;10411058;28;20037;-60
2021/07/21 17:05:37;;;;;;;0.07;0.07;;;;;;;19.66;66.92;102384.56;10410746;28;20275;-61
2021/07/21 17:10:37;;;;;;;0.00;0.00;;;;;;;19.50;67.09;102390.06;10410515;28;20492;-61
2021/07/21 17:15:37;;;;;;;0.10;0.10;;;;;;;19.37;66.72;102394.22;10409872;28;20116;-61
2021/07/21 17:20:41;;;;;;;0.10;0.10;;;;;;;19.26;67.12;102386.53;10410032;28;20037;-61
2021/07/21 17:25:43;;;;;;;0.00;0.00;;;;;;;19.15;67.80;102382.38;10409907;28;20029;-61
2021/07/21 17:30:46;;;;;;;0.00;0.00;;;;;;;19.11;68.87;102390.97;10409379;28;20485;-61
2021/07/21 17:35:47;;;;;;;0.10;0.10;;;;;;;19.08;68.86;102391.34;10409817;28;20087;-61
2021/07/21 17:40:48;;;;;;;0.10;0.10;;;;;;;18.99;69.11;102386.00;10416743;28;20033;-61
2021/07/21 17:45:48;;;;;;;0.10;0.10;;;;;;;18.89;68.80;102384.53;10408104;28;20475;-61
2021/07/21 17:50:48;;;;;;;0.10;0.10;;;;;;;18.78;68.66;102388.47;10407561;28;20037;-61
2021/07/21 17:55:52;;;;;;;0.10;0.10;;;;;;;18.72;69.73;102392.66;10437354;28;20033;-61
2021/07/21 18:00:52;;;;;;;;;;;;;;;18.65;69.85;102385.47;10448245;28;20036;-61
2021/07/21 18:05:52;;;;;;;0.10;0.10;;;;;;;18.53;69.73;102385.00;10447429;28;19909;-61
2021/07/21 18:10:53;;;;;;;0.00;0.00;;;;;;;18.39;70.22;102385.72;10447891;28;20649;-61
2021/07/21 18:15:53;;;;;;;0.00;0.00;;;;;;;18.27;70.81;102385.25;10431783;28;20043;-60
2021/07/21 18:20:59;;;;;;;0.10;0.10;;;;;;;18.15;71.31;102390.16;10410347;28;20275;-60
2021/07/21 18:26:00;;;;;;;0.10;0.10;;;;;;;18.02;71.56;102387.13;10407399;28;20443;-61
2021/07/21 18:31:00;;;;;;;0.10;0.10;;;;;;;17.90;72.17;102388.50;10388708;28;20036;-60
2021/07/21 18:36:01;;;;;;;0.10;0.10;;;;;;;17.78;72.47;102383.44;10407316;28;20035;-61
2021/07/21 18:41:02;;;;;;;0.10;0.10;;;;;;;17.69;72.59;102386.28;10413844;28;20030;-60
2021/07/21 18:46:03;;;;;;;0.10;0.10;;;;;;;17.57;72.64;102377.66;10414134;28;20087;-60
2021/07/21 18:51:04;;;;;;;0.10;0.10;;;;;;;17.45;72.92;102377.13;10418417;28;20457;-61
2021/07/21 18:56:05;;;;;;;0.10;0.10;;;;;;;17.35;73.92;102395.31;10449844;28;20467;-61
2021/07/21 19:01:06;;;;;;;0.10;0.10;;;;;;;17.20;74.06;102392.44;10436479;28;20120;-61
2021/07/21 19:06:06;;;;;;;0.00;0.00;;;;;;;17.06;74.69;102398.47;10424164;28;20135;-61
2021/07/21 19:11:07;;;;;;;0.10;0.10;;;;;;;16.91;74.39;102398.25;10433514;28;20391;-60
2021/07/21 19:16:08;;;;;;;0.10;0.10;;;;;;;16.79;75.14;102404.94;10422530;28;20033;-61
2021/07/21 19:21:08;;;;;;;0.10;0.10;;;;;;;16.64;75.54;102400.13;10391819;28;20052;-61
2021/07/21 19:26:08;;;;;;;0.10;0.10;;;;;;;16.52;76.10;102404.06;10421179;28;20033;-61
2021/07/21 19:31:12;;;;;;;0.10;0.10;;;;;;;16.40;76.55;102402.66;10453526;28;20557;-61
2021/07/21 19:36:12;;;;;;;0.10;0.10;;;;;;;16.29;77.13;102412.69;10415395;28;20033;-61
2021/07/21 19:41:12;;;;;;;0.10;0.10;;;;;;;16.16;77.54;102409.56;10412155;28;20029;-60
2021/07/21 19:46:13;;;;;;;0.10;0.10;;;;;;;16.05;78.17;102407.97;10423127;28;20033;-61
2021/07/21 19:51:13;;;;;;;0.10;0.10;;;;;;;15.94;78.71;102408.25;10452557;28;20078;-61
2021/07/21 19:56:14;;;;;;;0.00;0.00;;;;;;;15.84;78.96;102411.00;10441828;28;20215;-61
2021/07/21 20:01:14;;;;;;;0.10;0.10;;;;;;;15.74;79.26;102412.09;10411213;28;20186;-61
2021/07/21 20:06:15;;;;;;;0.00;0.00;;;;;;;15.64;80.05;102412.13;10411643;28;20256;-61
2021/07/21 20:11:15;;;;;;;0.10;0.10;;;;;;;15.58;80.43;102416.28;10426520;28;20040;-61
2021/07/21 20:16:16;;;;;;;0.10;0.10;;;;;;;15.53;80.88;102420.41;10434841;28;20487;-61
2021/07/21 20:21:16;;;;;;;0.00;0.00;;;;;;;15.50;81.04;102424.25;10419363;28;20264;-61
2021/07/21 20:26:17;;;;;;;0.10;0.10;;;;;;;15.49;81.53;102429.78;10411139;28;20056;-60
2021/07/21 20:31:17;;;;;;;0.00;0.00;;;;;;;15.49;82.00;102421.75;10441216;28;20033;-60
2021/07/21 20:36:18;;;;;;;0.10;0.10;;;;;;;15.50;81.91;102421.56;10431480;28;20446;-61
2021/07/21 20:41:20;;;;;;;0.10;0.10;;;;;;;15.49;81.61;102433.31;10391591;28;20033;-61
2021/07/21 20:46:22;;;;;;;0.10;0.10;;;;;;;15.44;81.82;102421.34;10410218;28;20026;-61
2021/07/21 20:51:23;;;;;;;0.10;0.10;;;;;;;15.40;82.40;102426.19;10409188;28;20076;-61
2021/07/21 20:56:24;;;;;;;0.10;0.10;;;;;;;15.34;82.52;102424.94;10408776;28;20064;-60
2021/07/21 21:01:24;;;;;;;0.10;0.10;;;;;;;15.26;82.64;102418.63;10426978;28;20115;-61
2021/07/21 21:06:24;;;;;;;0.10;0.10;;;;;;;15.16;82.65;102416.03;10415338;23;20045;-60
2021/07/21 21:11:25;;;;;;;0.10;0.10;;;;;;;15.06;82.46;102410.69;10407968;28;20032;-58
2021/07/21 21:16:25;;;;;;;0.10;0.10;;;;;;;14.99;83.10;102419.50;10369979;28;20253;-60
2021/07/21 21:21:25;;;;;;;0.08;0.08;;;;;;;14.97;83.61;102426.84;10368038;28;20026;-60
2021/07/21 21:26:26;;;;;;;0.10;0.10;;;;;;;14.97;83.75;102416.13;10368417;28;20046;-60
2021/07/21 21:31:26;;;;;;;0.10;0.10;;;;;;;15.00;83.97;102422.03;10367504;28;20037;-59
2021/07/21 21:36:28;;;;;;;0.10;0.10;;;;;;;15.09;84.43;102421.13;10340424;28;20488;-58
2021/07/21 21:41:28;;;;;;;0.10;0.10;;;;;;;15.14;84.26;102418.84;10326716;28;20030;-60
2021/07/21 21:46:29;;;;;;;0.10;0.10;;;;;;;15.12;85.25;102414.63;10327238;28;20048;-60
2021/07/21 21:51:29;;;;;;;0.10;0.10;;;;;;;15.08;85.07;102413.25;10326616;28;20041;-60
2021/07/21 21:56:30;;;;;;;0.10;0.10;;;;;;;15.06;84.26;102409.84;10339725;28;20073;-60
2021/07/21 22:01:31;;;;;;;0.10;0.10;;;;;;;15.08;84.18;102400.66;10327855;28;20030;-60
2021/07/21 22:06:32;;;;;;;0.10;0.10;;;;;;;15.13;83.78;102411.81;10365825;28;20629;-61
2021/07/21 22:11:32;;;;;;;0.10;0.10;;;;;;;15.16;83.65;102419.56;10366779;28;20030;-58
2021/07/21 22:16:33;;;;;;;0.03;0.03;;;;;;;15.15;82.93;102409.81;10375363;28;20121;-58
2021/07/21 22:21:33;;;;;;;0.10;0.10;;;;;;;15.08;83.53;102414.09;10374425;28;20034;-60
2021/07/21 22:26:36;;;;;;;0.00;0.00;;;;;;;15.03;83.66;102421.72;10373573;28;20061;-58
2021/07/21 22:31:40;;;;;;;0.10;0.10;;;;;;;15.03;83.72;102426.25;10373076;28;20030;-60
2021/07/21 22:36:43;;;;;;;0.10;0.10;;;;;;;15.05;83.91;102429.66;10349131;28;20038;-62
2021/07/21 22:41:54;;;;;;;0.10;0.10;;;;;;;15.10;83.75;102428.22;10338316;28;20041;-61
2021/07/21 22:46:56;;;;;;;0.10;0.10;;;;;;;15.16;83.64;102426.75;10371652;28;20389;-60
2021/07/21 22:51:57;;;;;;;0.10;0.10;;;;;;;15.23;83.86;102435.88;10372049;28;20057;-61
2021/07/21 22:56:57;;;;;;;0.10;0.10;;;;;;;15.29;83.96;102437.97;10372281;28;20073;-59
2021/07/21 23:02:35;;;;;;;0.10;0.10;;;;;;;15.33;83.42;102436.69;10372935;28;20119;-61
2021/07/21 23:08:12;;;;;;;0.10;0.10;;;;;;;15.37;83.72;102426.47;10373115;28;20064;-61
2021/07/21 23:13:50;;;;;;;0.10;0.10;;;;;;;15.38;83.53;102439.75;10372491;28;20080;-60
2021/07/21 23:18:50;;;;;;;0.10;0.10;;;;;;;15.40;83.96;102421.66;10349107;28;20397;-60
2021/07/21 23:23:51;;;;;;;0.10;0.10;;;;;;;15.39;83.78;102425.34;10330703;28;20033;-60
2021/07/21 23:28:52;;;;;;;0.10;0.10;;;;;;;15.41;84.34;102425.16;10366581;28;20088;-59